sensor_id;sensor_type;location;lat;lon;timestamp;pressure;altitude;pressure_sealevel;temperature;humidity
60832;BME280;46665;51.558;-0.448;2022-08-01T00:02:01;101376.81;;;19.90;77.78
60832;BME280;46665;51.558;-0.448;2022-08-01T00:04:26;101385.41;;;19.89;78.00
60832;BME280;46665;51.558;-0.448;2022-08-01T00:06:51;101378.56;;;19.86;77.54
60832;BME280;46665;51.558;-0.448;2022-08-01T00:09:17;101370.59;;;19.85;77.56
60832;BME280;46665;51.558;-0.448;2022-08-01T00:11:42;101373.22;;;19.81;77.64
60832;BME280;46665;51.558;-0.448;2022-08-01T00:14:08;101377.94;;;19.81;77.48
60832;BME280;46665;51.558;-0.448;2022-08-01T00:16:35;101370.78;;;19.80;77.42
60832;BME280;46665;51.558;-0.448;2022-08-01T00:19:00;101370.31;;;19.78;77.63
60832;BME280;46665;51.558;-0.448;2022-08-01T00:21:26;101374.19;;;19.77;77.52
60832;BME280;46665;51.558;-0.448;2022-08-01T00:23:51;101364.13;;;19.72;77.59
60832;BME280;46665;51.558;-0.448;2022-08-01T00:26:16;101364.13;;;19.72;77.21
60832;BME280;46665;51.558;-0.448;2022-08-01T00:28:42;101370.78;;;19.71;77.00
60832;BME280;46665;51.558;-0.448;2022-08-01T00:31:07;101375.16;;;19.72;76.19
60832;BME280;46665;51.558;-0.448;2022-08-01T00:33:33;101377.31;;;19.75;75.82
60832;BME280;46665;51.558;-0.448;2022-08-01T00:35:58;101373.69;;;19.75;75.48
60832;BME280;46665;51.558;-0.448;2022-08-01T00:38:24;101365.91;;;19.77;75.32
60832;BME280;46665;51.558;-0.448;2022-08-01T00:40:49;101378.91;;;19.76;75.60
60832;BME280;46665;51.558;-0.448;2022-08-01T00:43:15;101369.00;;;19.75;75.83
60832;BME280;46665;51.558;-0.448;2022-08-01T00:45:41;101378.09;;;19.76;75.67
60832;BME280;46665;51.558;-0.448;2022-08-01T00:48:07;101381.66;;;19.76;76.73
60832;BME280;46665;51.558;-0.448;2022-08-01T00:50:32;101375.34;;;19.76;76.94
60832;BME280;46665;51.558;-0.448;2022-08-01T00:52:59;101365.91;;;19.77;77.17
60832;BME280;46665;51.558;-0.448;2022-08-01T00:55:26;101368.53;;;19.73;77.47
60832;BME280;46665;51.558;-0.448;2022-08-01T00:57:52;101372.75;;;19.70;77.75
60832;BME280;46665;51.558;-0.448;2022-08-01T01:00:17;101375.03;;;19.68;77.67
60832;BME280;46665;51.558;-0.448;2022-08-01T01:02:43;101374.50;;;19.66;78.14
60832;BME280;46665;51.558;-0.448;2022-08-01T01:05:09;101376.31;;;19.62;78.30
60832;BME280;46665;51.558;-0.448;2022-08-01T01:07:44;101377.75;;;19.60;78.13
60832;BME280;46665;51.558;-0.448;2022-08-01T01:10:23;101386.19;;;19.55;78.69
60832;BME280;46665;51.558;-0.448;2022-08-01T01:18:02;101391.03;;;19.49;78.75
60832;BME280;46665;51.558;-0.448;2022-08-01T01:20:31;101391.38;;;19.47;78.97
60832;BME280;46665;51.558;-0.448;2022-08-01T01:31:03;101388.28;;;19.40;78.80
60832;BME280;46665;51.558;-0.448;2022-08-01T01:33:34;101390.25;;;19.40;78.66
60832;BME280;46665;51.558;-0.448;2022-08-01T01:36:04;101388.59;;;19.39;78.65
60832;BME280;46665;51.558;-0.448;2022-08-01T01:38:36;101391.50;;;19.34;79.21
60832;BME280;46665;51.558;-0.448;2022-08-01T01:41:03;101392.97;;;19.31;79.09
60832;BME280;46665;51.558;-0.448;2022-08-01T01:43:32;101390.56;;;19.30;79.35
60832;BME280;46665;51.558;-0.448;2022-08-01T01:45:58;101385.66;;;19.26;79.34
60832;BME280;46665;51.558;-0.448;2022-08-01T01:48:26;101379.31;;;19.26;79.47
60832;BME280;46665;51.558;-0.448;2022-08-01T01:50:54;101382.91;;;19.26;79.06
60832;BME280;46665;51.558;-0.448;2022-08-01T01:53:22;101376.91;;;19.24;79.25
60832;BME280;46665;51.558;-0.448;2022-08-01T01:55:50;101377.22;;;19.23;79.51
60832;BME280;46665;51.558;-0.448;2022-08-01T01:58:18;101381.44;;;19.20;79.71
60832;BME280;46665;51.558;-0.448;2022-08-01T02:00:45;101381.13;;;19.22;79.24
60832;BME280;46665;51.558;-0.448;2022-08-01T02:03:12;101383.88;;;19.22;79.65
60832;BME280;46665;51.558;-0.448;2022-08-01T02:05:38;101373.00;;;19.17;79.79
60832;BME280;46665;51.558;-0.448;2022-08-01T02:08:06;101379.31;;;19.17;79.74
60832;BME280;46665;51.558;-0.448;2022-08-01T02:10:34;101376.06;;;19.15;79.73
60832;BME280;46665;51.558;-0.448;2022-08-01T02:13:03;101366.00;;;19.11;79.80
60832;BME280;46665;51.558;-0.448;2022-08-01T02:15:30;101375.06;;;19.11;80.03
60832;BME280;46665;51.558;-0.448;2022-08-01T02:17:57;101368.75;;;19.11;79.91
60832;BME280;46665;51.558;-0.448;2022-08-01T02:20:24;101379.78;;;19.11;79.85
60832;BME280;46665;51.558;-0.448;2022-08-01T02:22:53;101379.47;;;19.12;79.85
60832;BME280;46665;51.558;-0.448;2022-08-01T02:25:32;101369.09;;;19.09;80.11
60832;BME280;46665;51.558;-0.448;2022-08-01T02:28:03;101367.78;;;19.07;80.17
60832;BME280;46665;51.558;-0.448;2022-08-01T02:30:35;101369.88;;;19.01;80.52
60832;BME280;46665;51.558;-0.448;2022-08-01T02:33:12;101370.50;;;18.98;80.43
60832;BME280;46665;51.558;-0.448;2022-08-01T02:35:41;101361.25;;;18.94;80.54
60832;BME280;46665;51.558;-0.448;2022-08-01T02:38:09;101369.19;;;18.95;80.13
60832;BME280;46665;51.558;-0.448;2022-08-01T02:40:38;101362.69;;;18.91;80.16
60832;BME280;46665;51.558;-0.448;2022-08-01T02:43:06;101354.75;;;18.90;80.03
60832;BME280;46665;51.558;-0.448;2022-08-01T02:45:35;101353.75;;;18.86;80.33
60832;BME280;46665;51.558;-0.448;2022-08-01T02:48:07;101354.09;;;18.84;80.38
60832;BME280;46665;51.558;-0.448;2022-08-01T02:50:35;101354.91;;;18.84;80.40
60832;BME280;46665;51.558;-0.448;2022-08-01T02:53:01;101350.84;;;18.82;80.28
60832;BME280;46665;51.558;-0.448;2022-08-01T02:55:28;101350.66;;;18.78;80.28
60832;BME280;46665;51.558;-0.448;2022-08-01T02:57:56;101354.84;;;18.76;80.42
60832;BME280;46665;51.558;-0.448;2022-08-01T03:00:23;101352.41;;;18.74;80.77
60832;BME280;46665;51.558;-0.448;2022-08-01T03:02:51;101359.03;;;18.73;81.11
60832;BME280;46665;51.558;-0.448;2022-08-01T03:05:20;101354.97;;;18.71;81.31
60832;BME280;46665;51.558;-0.448;2022-08-01T03:07:46;101349.66;;;18.74;81.05
60832;BME280;46665;51.558;-0.448;2022-08-01T03:10:13;101356.28;;;18.73;81.28
60832;BME280;46665;51.558;-0.448;2022-08-01T03:12:42;101355.16;;;18.74;80.74
60832;BME280;46665;51.558;-0.448;2022-08-01T03:15:10;101353.84;;;18.72;81.04
60832;BME280;46665;51.558;-0.448;2022-08-01T03:17:37;101358.72;;;18.66;81.30
60832;BME280;46665;51.558;-0.448;2022-08-01T03:20:06;101363.09;;;18.67;81.22
60832;BME280;46665;51.558;-0.448;2022-08-01T03:22:34;101357.88;;;18.66;81.05
60832;BME280;46665;51.558;-0.448;2022-08-01T03:25:02;101357.88;;;18.66;81.04
60832;BME280;46665;51.558;-0.448;2022-08-01T03:27:28;101362.91;;;18.63;81.24
60832;BME280;46665;51.558;-0.448;2022-08-01T03:29:56;101357.22;;;18.60;81.41
60832;BME280;46665;51.558;-0.448;2022-08-01T03:32:23;101359.47;;;18.58;81.63
60832;BME280;46665;51.558;-0.448;2022-08-01T03:34:50;101362.72;;;18.60;81.42
60832;BME280;46665;51.558;-0.448;2022-08-01T03:37:28;101362.72;;;18.60;81.59
60832;BME280;46665;51.558;-0.448;2022-08-01T03:40:02;101365.16;;;18.61;81.33
60832;BME280;46665;51.558;-0.448;2022-08-01T03:42:35;101367.44;;;18.59;81.50
60832;BME280;46665;51.558;-0.448;2022-08-01T03:45:08;101371.00;;;18.60;81.46
60832;BME280;46665;51.558;-0.448;2022-08-01T03:47:35;101379.25;;;18.60;81.43
60832;BME280;46665;51.558;-0.448;2022-08-01T03:50:03;101367.44;;;18.59;81.15
60832;BME280;46665;51.558;-0.448;2022-08-01T03:52:30;101369.38;;;18.59;80.73
60832;BME280;46665;51.558;-0.448;2022-08-01T03:54:59;101364.16;;;18.57;81.17
60832;BME280;46665;51.558;-0.448;2022-08-01T03:57:28;101361.72;;;18.56;81.39
60832;BME280;46665;51.558;-0.448;2022-08-01T03:59:56;101350.53;;;18.52;81.43
60832;BME280;46665;51.558;-0.448;2022-08-01T04:02:22;101359.09;;;18.51;81.64
60832;BME280;46665;51.558;-0.448;2022-08-01T04:04:48;101362.00;;;18.46;82.15
60832;BME280;46665;51.558;-0.448;2022-08-01T04:07:26;101364.44;;;18.47;81.92
60832;BME280;46665;51.558;-0.448;2022-08-01T04:09:52;101365.25;;;18.48;81.83
60832;BME280;46665;51.558;-0.448;2022-08-01T04:12:18;101365.25;;;18.48;81.58
60832;BME280;46665;51.558;-0.448;2022-08-01T04:14:44;101366.69;;;18.45;81.83
60832;BME280;46665;51.558;-0.448;2022-08-01T04:17:10;101368.66;;;18.45;81.80
60832;BME280;46665;51.558;-0.448;2022-08-01T04:19:35;101364.28;;;18.44;82.13
60832;BME280;46665;51.558;-0.448;2022-08-01T04:22:01;101360.22;;;18.41;81.95
60832;BME280;46665;51.558;-0.448;2022-08-01T04:24:28;101351.25;;;18.35;82.33
60832;BME280;46665;51.558;-0.448;2022-08-01T04:26:58;101350.28;;;18.31;82.46
60832;BME280;46665;51.558;-0.448;2022-08-01T04:29:26;101354.28;;;18.25;82.68
60832;BME280;46665;51.558;-0.448;2022-08-01T04:31:54;101351.34;;;18.22;82.73
60832;BME280;46665;51.558;-0.448;2022-08-01T04:34:21;101354.09;;;18.22;82.64
60832;BME280;46665;51.558;-0.448;2022-08-01T04:36:48;101358.47;;;18.23;82.64
60832;BME280;46665;51.558;-0.448;2022-08-01T04:39:16;101360.25;;;18.18;83.03
60832;BME280;46665;51.558;-0.448;2022-08-01T04:41:44;101364.47;;;18.16;83.06
60832;BME280;46665;51.558;-0.448;2022-08-01T04:44:12;101366.69;;;18.14;83.15
60832;BME280;46665;51.558;-0.448;2022-08-01T04:46:38;101375.78;;;18.14;83.40
60832;BME280;46665;51.558;-0.448;2022-08-01T04:49:06;101364.75;;;18.14;83.26
60832;BME280;46665;51.558;-0.448;2022-08-01T04:51:34;101375.13;;;18.17;83.19
60832;BME280;46665;51.558;-0.448;2022-08-01T04:53:59;101379.84;;;18.17;83.19
60832;BME280;46665;51.558;-0.448;2022-08-01T04:56:26;101374.03;;;18.18;82.99
60832;BME280;46665;51.558;-0.448;2022-08-01T04:58:52;101374.34;;;18.17;83.25
60832;BME280;46665;51.558;-0.448;2022-08-01T05:01:37;101385.34;;;18.17;82.89
60832;BME280;46665;51.558;-0.448;2022-08-01T05:04:02;101381.28;;;18.14;82.92
60832;BME280;46665;51.558;-0.448;2022-08-01T05:06:28;101383.72;;;18.16;83.02
60832;BME280;46665;51.558;-0.448;2022-08-01T05:08:53;101390.56;;;18.18;82.84
60832;BME280;46665;51.558;-0.448;2022-08-01T05:11:19;101391.38;;;18.19;82.90
60832;BME280;46665;51.558;-0.448;2022-08-01T05:13:44;101392.81;;;18.16;83.03
60832;BME280;46665;51.558;-0.448;2022-08-01T05:16:09;101392.81;;;18.16;83.18
60832;BME280;46665;51.558;-0.448;2022-08-01T05:18:35;101398.94;;;18.13;83.44
60832;BME280;46665;51.558;-0.448;2022-08-01T05:21:01;101404.75;;;18.12;83.57
60832;BME280;46665;51.558;-0.448;2022-08-01T05:23:27;101397.00;;;18.14;83.09
60832;BME280;46665;51.558;-0.448;2022-08-01T05:25:52;101394.75;;;18.16;82.79
60832;BME280;46665;51.558;-0.448;2022-08-01T05:28:17;101394.25;;;18.14;83.06
60832;BME280;46665;51.558;-0.448;2022-08-01T05:30:43;101390.69;;;18.13;83.34
60832;BME280;46665;51.558;-0.448;2022-08-01T05:33:08;101386.78;;;18.14;83.15
60832;BME280;46665;51.558;-0.448;2022-08-01T05:35:34;101387.00;;;18.18;83.09
60832;BME280;46665;51.558;-0.448;2022-08-01T05:37:59;101384.25;;;18.18;83.49
60832;BME280;46665;51.558;-0.448;2022-08-01T05:40:25;101383.09;;;18.19;83.40
60832;BME280;46665;51.558;-0.448;2022-08-01T05:42:50;101382.97;;;18.24;83.08
60832;BME280;46665;51.558;-0.448;2022-08-01T05:45:15;101386.59;;;18.33;82.91
60832;BME280;46665;51.558;-0.448;2022-08-01T05:47:41;101392.44;;;18.40;82.15
60832;BME280;46665;51.558;-0.448;2022-08-01T05:50:07;101395.06;;;18.46;82.10
60832;BME280;46665;51.558;-0.448;2022-08-01T05:52:32;101393.31;;;18.50;82.04
60832;BME280;46665;51.558;-0.448;2022-08-01T05:54:58;101389.28;;;18.56;81.62
60832;BME280;46665;51.558;-0.448;2022-08-01T05:57:24;101387.72;;;18.63;81.24
60832;BME280;46665;51.558;-0.448;2022-08-01T05:59:49;101397.78;;;18.68;80.76
60832;BME280;46665;51.558;-0.448;2022-08-01T06:02:15;101392.44;;;18.72;80.65
60832;BME280;46665;51.558;-0.448;2022-08-01T06:04:40;101397.06;;;18.76;81.04
60832;BME280;46665;51.558;-0.448;2022-08-01T06:07:06;101394.97;;;18.82;80.94
60832;BME280;46665;51.558;-0.448;2022-08-01T06:09:31;101391.19;;;18.78;80.26
60832;BME280;46665;51.558;-0.448;2022-08-01T06:11:57;101397.63;;;18.73;80.57
60832;BME280;46665;51.558;-0.448;2022-08-01T06:14:22;101387.94;;;18.76;80.43
60832;BME280;46665;51.558;-0.448;2022-08-01T06:16:48;101390.41;;;18.77;80.31
60832;BME280;46665;51.558;-0.448;2022-08-01T06:19:13;101397.72;;;18.82;80.19
60832;BME280;46665;51.558;-0.448;2022-08-01T06:21:38;101402.88;;;18.83;80.43
60832;BME280;46665;51.558;-0.448;2022-08-01T06:24:04;101398.69;;;18.86;80.56
60832;BME280;46665;51.558;-0.448;2022-08-01T06:26:29;101400.00;;;18.89;80.44
60832;BME280;46665;51.558;-0.448;2022-08-01T06:28:56;101406.66;;;18.88;80.63
60832;BME280;46665;51.558;-0.448;2022-08-01T06:31:21;101404.38;;;18.90;80.43
60832;BME280;46665;51.558;-0.448;2022-08-01T06:33:47;101402.13;;;18.92;80.86
60832;BME280;46665;51.558;-0.448;2022-08-01T06:36:12;101403.91;;;18.96;80.31
60832;BME280;46665;51.558;-0.448;2022-08-01T06:38:38;101408.63;;;18.96;80.06
60832;BME280;46665;51.558;-0.448;2022-08-01T06:41:03;101404.75;;;18.97;80.63
60832;BME280;46665;51.558;-0.448;2022-08-01T06:43:28;101408.63;;;18.96;80.15
60832;BME280;46665;51.558;-0.448;2022-08-01T06:45:54;101407.81;;;18.95;80.37
60832;BME280;46665;51.558;-0.448;2022-08-01T06:48:19;101410.06;;;18.93;80.00
60832;BME280;46665;51.558;-0.448;2022-08-01T06:50:45;101418.69;;;18.92;79.93
60832;BME280;46665;51.558;-0.448;2022-08-01T06:53:10;101422.41;;;18.96;79.98
60832;BME280;46665;51.558;-0.448;2022-08-01T06:55:36;101421.28;;;18.97;79.88
60832;BME280;46665;51.558;-0.448;2022-08-01T06:58:01;101420.00;;;18.94;79.62
60832;BME280;46665;51.558;-0.448;2022-08-01T07:00:27;101418.84;;;18.95;80.06
60832;BME280;46665;51.558;-0.448;2022-08-01T07:02:53;101420.66;;;19.00;79.56
60832;BME280;46665;51.558;-0.448;2022-08-01T07:05:20;101419.19;;;19.02;79.71
60832;BME280;46665;51.558;-0.448;2022-08-01T07:07:45;101417.25;;;19.03;79.58
60832;BME280;46665;51.558;-0.448;2022-08-01T07:10:11;101417.75;;;19.05;79.62
60832;BME280;46665;51.558;-0.448;2022-08-01T07:12:37;101421.00;;;19.07;79.53
60832;BME280;46665;51.558;-0.448;2022-08-01T07:15:07;101419.84;;;19.08;79.13
60832;BME280;46665;51.558;-0.448;2022-08-01T07:17:36;101421.50;;;19.09;79.28
60832;BME280;46665;51.558;-0.448;2022-08-01T07:20:08;101419.72;;;19.13;79.23
60832;BME280;46665;51.558;-0.448;2022-08-01T07:22:34;101409.00;;;19.12;79.16
60832;BME280;46665;51.558;-0.448;2022-08-01T07:25:00;101418.25;;;19.16;79.40
60832;BME280;46665;51.558;-0.448;2022-08-01T07:27:25;101418.75;;;19.18;78.66
60832;BME280;46665;51.558;-0.448;2022-08-01T07:29:51;101426.06;;;19.22;79.34
60832;BME280;46665;51.558;-0.448;2022-08-01T07:32:16;101411.63;;;19.25;78.37
60832;BME280;46665;51.558;-0.448;2022-08-01T07:34:41;101418.16;;;19.30;78.63
60832;BME280;46665;51.558;-0.448;2022-08-01T07:37:07;101414.25;;;19.31;78.35
60832;BME280;46665;51.558;-0.448;2022-08-01T07:39:32;101422.53;;;19.39;78.42
60832;BME280;46665;51.558;-0.448;2022-08-01T07:41:58;101417.19;;;19.43;77.48
60832;BME280;46665;51.558;-0.448;2022-08-01T07:44:23;101427.56;;;19.46;77.53
60832;BME280;46665;51.558;-0.448;2022-08-01T07:46:48;101425.16;;;19.53;77.36
60832;BME280;46665;51.558;-0.448;2022-08-01T07:49:14;101430.22;;;19.60;78.09
60832;BME280;46665;51.558;-0.448;2022-08-01T07:51:39;101430.72;;;19.70;77.29
60832;BME280;46665;51.558;-0.448;2022-08-01T07:54:05;101436.09;;;19.76;76.71
60832;BME280;46665;51.558;-0.448;2022-08-01T07:56:30;101433.47;;;19.79;76.94
60832;BME280;46665;51.558;-0.448;2022-08-01T07:58:56;101439.50;;;19.90;76.86
60832;BME280;46665;51.558;-0.448;2022-08-01T08:01:21;101450.56;;;19.99;76.21
60832;BME280;46665;51.558;-0.448;2022-08-01T08:03:47;101452.34;;;20.03;75.34
60832;BME280;46665;51.558;-0.448;2022-08-01T08:06:12;101451.53;;;19.94;74.80
60832;BME280;46665;51.558;-0.448;2022-08-01T08:08:37;101450.06;;;19.79;75.94
60832;BME280;46665;51.558;-0.448;2022-08-01T08:11:03;101449.88;;;19.84;76.34
60832;BME280;46665;51.558;-0.448;2022-08-01T08:13:29;101449.09;;;19.84;76.15
60832;BME280;46665;51.558;-0.448;2022-08-01T08:15:54;101448.94;;;19.80;76.03
60832;BME280;46665;51.558;-0.448;2022-08-01T08:18:20;101451.69;;;19.80;76.15
60832;BME280;46665;51.558;-0.448;2022-08-01T08:20:46;101448.41;;;19.69;76.96
60832;BME280;46665;51.558;-0.448;2022-08-01T08:23:11;101441.94;;;19.74;77.14
60832;BME280;46665;51.558;-0.448;2022-08-01T08:25:55;101445.34;;;19.88;76.95
60832;BME280;46665;51.558;-0.448;2022-08-01T08:28:21;101451.84;;;20.01;76.54
60832;BME280;46665;51.558;-0.448;2022-08-01T08:30:46;101434.13;;;20.11;75.13
60832;BME280;46665;51.558;-0.448;2022-08-01T08:33:11;101437.22;;;20.18;75.19
60832;BME280;46665;51.558;-0.448;2022-08-01T08:35:39;101434.59;;;20.22;74.54
60832;BME280;46665;51.558;-0.448;2022-08-01T08:38:06;101441.63;;;20.10;74.95
60832;BME280;46665;51.558;-0.448;2022-08-01T08:40:35;101446.81;;;20.03;75.12
60832;BME280;46665;51.558;-0.448;2022-08-01T08:43:01;101439.03;;;20.05;75.52
60832;BME280;46665;51.558;-0.448;2022-08-01T08:45:29;101440.63;;;20.06;75.60
60832;BME280;46665;51.558;-0.448;2022-08-01T08:47:55;101437.22;;;20.18;75.16
60832;BME280;46665;51.558;-0.448;2022-08-01T08:50:22;101430.69;;;20.31;74.00
60832;BME280;46665;51.558;-0.448;2022-08-01T08:52:49;101431.31;;;20.37;72.98
60832;BME280;46665;51.558;-0.448;2022-08-01T08:55:16;101433.25;;;20.45;72.54
60832;BME280;46665;51.558;-0.448;2022-08-01T08:57:43;101431.16;;;20.51;71.68
60832;BME280;46665;51.558;-0.448;2022-08-01T09:00:10;101425.78;;;20.54;71.86
60832;BME280;46665;51.558;-0.448;2022-08-01T09:02:41;101430.16;;;20.64;71.81
60832;BME280;46665;51.558;-0.448;2022-08-01T09:05:07;101434.69;;;20.69;71.39
60832;BME280;46665;51.558;-0.448;2022-08-01T09:07:32;101436.44;;;20.73;71.53
60832;BME280;46665;51.558;-0.448;2022-08-01T09:09:58;101438.56;;;20.76;70.30
60832;BME280;46665;51.558;-0.448;2022-08-01T09:12:23;101441.00;;;20.78;70.02
60832;BME280;46665;51.558;-0.448;2022-08-01T09:14:49;101436.44;;;20.82;69.47
60832;BME280;46665;51.558;-0.448;2022-08-01T09:17:17;101428.94;;;20.83;69.70
60832;BME280;46665;51.558;-0.448;2022-08-01T09:19:50;101435.13;;;20.80;68.33
60832;BME280;46665;51.558;-0.448;2022-08-01T09:22:21;101432.03;;;20.81;69.71
60832;BME280;46665;51.558;-0.448;2022-08-01T09:25:07;101438.16;;;20.95;69.71
60832;BME280;46665;51.558;-0.448;2022-08-01T09:27:34;101439.31;;;20.94;68.52
60832;BME280;46665;51.558;-0.448;2022-08-01T09:32:52;101440.34;;;21.11;69.38
60832;BME280;46665;51.558;-0.448;2022-08-01T09:37:49;101450.34;;;21.33;65.86
60832;BME280;46665;51.558;-0.448;2022-08-01T09:40:14;101448.88;;;21.35;65.90
60832;BME280;46665;51.558;-0.448;2022-08-01T09:42:40;101452.91;;;21.38;64.46
60832;BME280;46665;51.558;-0.448;2022-08-01T09:45:06;101447.72;;;21.36;65.19
60832;BME280;46665;51.558;-0.448;2022-08-01T09:47:39;101434.84;;;21.40;65.01
60832;BME280;46665;51.558;-0.448;2022-08-01T09:50:05;101442.97;;;21.46;65.40
60832;BME280;46665;51.558;-0.448;2022-08-01T09:52:31;101453.84;;;21.51;66.17
60832;BME280;46665;51.558;-0.448;2022-08-01T09:54:58;101454.81;;;21.55;65.32
60832;BME280;46665;51.558;-0.448;2022-08-01T09:57:25;101450.75;;;21.52;64.52
60832;BME280;46665;51.558;-0.448;2022-08-01T09:59:54;101449.00;;;21.48;64.24
60832;BME280;46665;51.558;-0.448;2022-08-01T10:02:35;101449.78;;;21.48;64.71
60832;BME280;46665;51.558;-0.448;2022-08-01T10:05:04;101445.75;;;21.46;64.34
60832;BME280;46665;51.558;-0.448;2022-08-01T10:07:30;101446.41;;;21.42;63.60
60832;BME280;46665;51.558;-0.448;2022-08-01T10:09:55;101446.91;;;21.45;64.49
60832;BME280;46665;51.558;-0.448;2022-08-01T10:12:22;101445.53;;;21.51;64.92
60832;BME280;46665;51.558;-0.448;2022-08-01T10:14:51;101448.31;;;21.51;63.95
60832;BME280;46665;51.558;-0.448;2022-08-01T10:17:20;101447.16;;;21.52;63.26
60832;BME280;46665;51.558;-0.448;2022-08-01T10:19:46;101439.19;;;21.50;63.79
60832;BME280;46665;51.558;-0.448;2022-08-01T10:22:13;101437.72;;;21.53;63.18
60832;BME280;46665;51.558;-0.448;2022-08-01T10:24:43;101445.88;;;21.49;62.79
60832;BME280;46665;51.558;-0.448;2022-08-01T10:27:10;101433.31;;;21.52;63.55
60832;BME280;46665;51.558;-0.448;2022-08-01T10:29:57;101440.13;;;21.54;63.28
60832;BME280;46665;51.558;-0.448;2022-08-01T10:32:30;101444.34;;;21.60;62.97
60832;BME280;46665;51.558;-0.448;2022-08-01T10:34:55;101439.72;;;21.64;63.16
60832;BME280;46665;51.558;-0.448;2022-08-01T10:37:22;101446.72;;;21.71;62.99
60832;BME280;46665;51.558;-0.448;2022-08-01T10:39:50;101431.84;;;21.75;63.13
60832;BME280;46665;51.558;-0.448;2022-08-01T10:42:17;101428.44;;;21.70;62.45
60832;BME280;46665;51.558;-0.448;2022-08-01T10:44:43;101434.81;;;21.70;62.77
60832;BME280;46665;51.558;-0.448;2022-08-01T10:47:13;101434.34;;;21.68;62.95
60832;BME280;46665;51.558;-0.448;2022-08-01T10:49:51;101443.59;;;21.72;62.85
60832;BME280;46665;51.558;-0.448;2022-08-01T10:52:19;101436.09;;;21.73;62.40
60832;BME280;46665;51.558;-0.448;2022-08-01T10:54:45;101432.97;;;21.74;62.48
60832;BME280;46665;51.558;-0.448;2022-08-01T10:57:11;101429.53;;;21.77;62.72
60832;BME280;46665;51.558;-0.448;2022-08-01T10:59:48;101431.38;;;21.73;62.06
60832;BME280;46665;51.558;-0.448;2022-08-01T11:02:26;101418.19;;;21.70;61.92
60832;BME280;46665;51.558;-0.448;2022-08-01T11:07:37;101426.88;;;22.02;61.44
60832;BME280;46665;51.558;-0.448;2022-08-01T11:10:27;101426.94;;;22.14;61.48
60832;BME280;46665;51.558;-0.448;2022-08-01T11:12:55;101431.53;;;22.10;60.52
60832;BME280;46665;51.558;-0.448;2022-08-01T11:15:22;101430.72;;;22.10;59.58
60832;BME280;46665;51.558;-0.448;2022-08-01T11:17:51;101430.22;;;21.95;60.48
60832;BME280;46665;51.558;-0.448;2022-08-01T11:20:19;101432.84;;;21.92;60.45
60832;BME280;46665;51.558;-0.448;2022-08-01T11:30:51;101423.34;;;22.35;59.75
60832;BME280;46665;51.558;-0.448;2022-08-01T11:33:19;101415.28;;;22.42;59.05
60832;BME280;46665;51.558;-0.448;2022-08-01T11:41:25;101404.50;;;22.98;58.59
60832;BME280;46665;51.558;-0.448;2022-08-01T11:46:51;101412.13;;;23.13;57.50
60832;BME280;46665;51.558;-0.448;2022-08-01T11:51:56;101407.50;;;23.18;58.17
60832;BME280;46665;51.558;-0.448;2022-08-01T11:54:34;101407.03;;;23.15;56.97
60832;BME280;46665;51.558;-0.448;2022-08-01T11:57:03;101403.44;;;23.15;56.84
60832;BME280;46665;51.558;-0.448;2022-08-01T11:59:39;101401.00;;;23.13;57.48
60832;BME280;46665;51.558;-0.448;2022-08-01T12:02:17;101385.06;;;23.10;58.20
60832;BME280;46665;51.558;-0.448;2022-08-01T12:07:12;101389.09;;;23.25;56.41
60832;BME280;46665;51.558;-0.448;2022-08-01T12:09:38;101395.22;;;23.19;56.93
60832;BME280;46665;51.558;-0.448;2022-08-01T12:12:03;101397.09;;;23.14;56.73
60832;BME280;46665;51.558;-0.448;2022-08-01T12:14:32;101395.00;;;23.11;56.73
60832;BME280;46665;51.558;-0.448;2022-08-01T12:16:58;101388.53;;;23.07;57.04
60832;BME280;46665;51.558;-0.448;2022-08-01T12:19:24;101385.53;;;23.00;57.14
60832;BME280;46665;51.558;-0.448;2022-08-01T12:22:06;101387.13;;;23.01;57.19
60832;BME280;46665;51.558;-0.448;2022-08-01T12:24:36;101382.19;;;23.07;58.13
60832;BME280;46665;51.558;-0.448;2022-08-01T12:27:04;101380.78;;;23.01;57.17
60832;BME280;46665;51.558;-0.448;2022-08-01T12:29:38;101378.09;;;23.17;57.85
60832;BME280;46665;51.558;-0.448;2022-08-01T12:32:13;101371.81;;;23.44;56.58
60832;BME280;46665;51.558;-0.448;2022-08-01T12:34:49;101375.16;;;23.50;54.89
60832;BME280;46665;51.558;-0.448;2022-08-01T12:37:14;101374.56;;;23.44;55.35
60832;BME280;46665;51.558;-0.448;2022-08-01T12:39:41;101364.53;;;23.40;55.84
60832;BME280;46665;51.558;-0.448;2022-08-01T12:42:07;101359.09;;;23.43;56.17
60832;BME280;46665;51.558;-0.448;2022-08-01T12:44:35;101364.72;;;23.47;57.02
60832;BME280;46665;51.558;-0.448;2022-08-01T12:47:01;101362.84;;;23.63;57.07
60832;BME280;46665;51.558;-0.448;2022-08-01T12:49:27;101358.03;;;23.88;56.83
60832;BME280;46665;51.558;-0.448;2022-08-01T12:51:54;101355.47;;;24.11;55.59
60832;BME280;46665;51.558;-0.448;2022-08-01T12:54:20;101354.06;;;24.33;53.92
60832;BME280;46665;51.558;-0.448;2022-08-01T12:56:45;101350.06;;;24.47;53.64
60832;BME280;46665;51.558;-0.448;2022-08-01T12:59:27;101352.38;;;24.60;52.74
60832;BME280;46665;51.558;-0.448;2022-08-01T13:01:55;101352.19;;;24.53;52.26
60832;BME280;46665;51.558;-0.448;2022-08-01T13:04:21;101353.38;;;24.68;52.19
60832;BME280;46665;51.558;-0.448;2022-08-01T13:06:53;101340.47;;;24.60;50.79
60832;BME280;46665;51.558;-0.448;2022-08-01T13:09:19;101346.50;;;24.46;50.53
60832;BME280;46665;51.558;-0.448;2022-08-01T13:11:44;101339.19;;;24.57;51.58
60832;BME280;46665;51.558;-0.448;2022-08-01T13:14:29;101343.25;;;24.60;51.54
60832;BME280;46665;51.558;-0.448;2022-08-01T13:16:54;101343.22;;;24.76;51.73
60832;BME280;46665;51.558;-0.448;2022-08-01T13:19:20;101346.69;;;24.88;51.62
60832;BME280;46665;51.558;-0.448;2022-08-01T13:21:56;101344.00;;;24.92;50.48
60832;BME280;46665;51.558;-0.448;2022-08-01T13:24:31;101346.34;;;24.90;49.37
60832;BME280;46665;51.558;-0.448;2022-08-01T13:27:01;101338.28;;;24.85;49.83